createdAt,value
2018-11-07T00:01:04.164Z,18.67
2018-11-07T00:03:35.952Z,29.48
2018-11-07T00:06:05.585Z,31.13
2018-11-07T00:08:36.184Z,24.95
2018-11-07T00:11:05.729Z,34.10
2018-11-07T00:13:36.568Z,26.53
2018-11-07T00:16:06.573Z,27.82
2018-11-07T00:18:39.321Z,25.70
2018-11-07T00:21:19.268Z,23.90
2018-11-07T00:23:49.105Z,24.52
2018-11-07T00:26:20.048Z,27.37
2018-11-07T00:28:51.612Z,24.40
2018-11-07T00:31:21.320Z,28.05
2018-11-07T00:33:51.001Z,26.03
2018-11-07T00:36:21.565Z,25.70
2018-11-07T00:38:51.345Z,26.80
2018-11-07T00:41:28.167Z,24.50
2018-11-07T00:43:58.766Z,28.50
2018-11-07T00:46:32.044Z,25.95
2018-11-07T00:49:01.941Z,31.05
2018-11-07T00:51:31.857Z,36.70
2018-11-07T00:54:02.717Z,21.27
2018-11-07T00:59:15.039Z,19.87
2018-11-07T01:01:44.893Z,34.43
2018-11-07T01:04:15.809Z,28.67
2018-11-07T01:06:48.085Z,23.52
2018-11-07T01:09:22.525Z,26.70
2018-11-07T01:11:55.396Z,23.27
2018-11-07T01:14:25.297Z,26.33
2018-11-07T01:16:54.968Z,26.02
2018-11-07T01:19:24.468Z,25.57
2018-11-07T01:21:54.317Z,23.30
2018-11-07T01:24:32.037Z,21.25
2018-11-07T01:27:06.320Z,24.40
2018-11-07T01:29:38.125Z,19.75
2018-11-07T01:32:08.400Z,23.10
2018-11-07T01:34:38.344Z,23.40
2018-11-07T01:37:09.974Z,26.80
2018-11-07T01:39:40.792Z,17.37
2018-11-07T01:42:11.490Z,24.47
2018-11-07T01:44:42.185Z,19.23
2018-11-07T01:47:15.395Z,18.85
2018-11-07T01:49:45.217Z,15.63
2018-11-07T01:52:17.452Z,21.55
2018-11-07T01:54:47.385Z,20.95
2018-11-07T01:57:17.308Z,22.70
2018-11-07T01:59:50.728Z,20.02
2018-11-07T02:02:20.996Z,23.27
2018-11-07T02:04:51.841Z,24.10
2018-11-07T02:07:28.645Z,22.73
2018-11-07T02:10:01.917Z,23.07
2018-11-07T02:12:41.037Z,21.05
2018-11-07T02:15:14.305Z,68.33
2018-11-07T02:17:44.640Z,139.28
2018-11-07T02:20:14.429Z,61.00
2018-11-07T02:22:44.244Z,130.37
2018-11-07T02:25:14.172Z,48.02
2018-11-07T02:27:44.225Z,25.50
2018-11-07T02:30:18.444Z,24.12
2018-11-07T02:32:48.093Z,19.12
2018-11-07T02:35:17.916Z,18.70
2018-11-07T02:37:47.888Z,46.00
2018-11-07T02:40:17.553Z,40.50
2018-11-07T02:43:04.076Z,68.42
2018-11-07T02:45:37.156Z,112.77
2018-11-07T02:48:10.470Z,96.72
2018-11-07T02:50:40.041Z,109.70
2018-11-07T02:53:09.685Z,47.75
2018-11-07T02:55:41.309Z,23.50
2018-11-07T02:58:12.173Z,38.45
2018-11-07T03:00:45.561Z,22.22
2018-11-07T03:03:15.327Z,22.10
2018-11-07T03:05:46.937Z,25.43
2018-11-07T03:08:18.442Z,18.32
2018-11-07T03:10:49.045Z,14.15
2018-11-07T03:13:18.469Z,18.85
2018-11-07T03:15:49.224Z,24.30
2018-11-07T03:18:22.601Z,14.55
2018-11-07T03:20:55.824Z,16.25
2018-11-07T03:23:29.233Z,16.60
2018-11-07T03:25:59.125Z,13.32
2018-11-07T03:28:28.877Z,18.32
2018-11-07T03:30:58.673Z,25.52
2018-11-07T03:33:28.559Z,19.70
2018-11-07T03:36:00.577Z,18.05
2018-11-07T03:38:30.325Z,19.62
2018-11-07T03:41:03.957Z,21.37
2018-11-07T03:43:33.824Z,29.57
2018-11-07T03:46:03.789Z,25.52
2018-11-07T03:48:33.441Z,22.67
2018-11-07T03:51:05.237Z,11.57
2018-11-07T03:53:36.873Z,9.68
2018-11-07T03:56:06.480Z,9.95
2018-11-07T03:58:36.061Z,8.70
2018-11-07T04:01:05.589Z,12.60
2018-11-07T04:03:35.382Z,16.67
2018-11-07T04:06:05.381Z,22.22
2018-11-07T04:08:37.232Z,16.82
2018-11-07T04:11:07.929Z,24.18
2018-11-07T04:13:39.821Z,13.93
2018-11-07T04:16:09.705Z,17.82
2018-11-07T04:18:45.480Z,22.55
2018-11-07T04:21:17.345Z,42.05
2018-11-07T04:23:58.233Z,27.48
2018-11-07T04:26:34.120Z,22.85
2018-11-07T04:29:04.948Z,25.60
2018-11-07T04:31:34.861Z,21.15
2018-11-07T04:34:05.666Z,19.32
2018-11-07T04:36:35.292Z,24.90
2018-11-07T04:39:07.518Z,23.30
2018-11-07T04:41:38.297Z,32.60
2018-11-07T04:44:14.936Z,25.37
2018-11-07T04:46:48.065Z,21.35
2018-11-07T04:49:18.019Z,23.62
2018-11-07T04:51:47.925Z,37.25
2018-11-07T04:54:17.798Z,35.35
2018-11-07T04:56:55.098Z,28.73
2018-11-07T04:59:30.672Z,27.32
2018-11-07T05:02:00.507Z,48.35
2018-11-07T05:04:30.162Z,29.65
2018-11-07T05:07:04.805Z,29.12
2018-11-07T05:09:36.676Z,32.40
2018-11-07T05:12:06.824Z,32.23
2018-11-07T05:14:36.660Z,36.73
2018-11-07T05:17:06.277Z,25.10
2018-11-07T05:19:45.116Z,24.75
2018-11-07T05:22:14.901Z,26.93
2018-11-07T05:24:50.349Z,26.87
2018-11-07T05:27:20.185Z,41.48
2018-11-07T05:29:50.997Z,25.80
2018-11-07T05:32:26.609Z,29.63
2018-11-07T05:34:56.113Z,20.95
2018-11-07T05:37:30.457Z,23.30
2018-11-07T05:40:00.284Z,21.12
2018-11-07T05:42:30.212Z,32.95
2018-11-07T05:44:59.922Z,21.57
2018-11-07T05:47:29.501Z,31.52
2018-11-07T05:50:00.014Z,22.05
2018-11-07T05:52:29.553Z,19.35
2018-11-07T05:54:59.361Z,19.45
2018-11-07T05:57:31.197Z,28.80
2018-11-07T06:00:01.064Z,29.67
2018-11-07T06:02:30.860Z,23.05
2018-11-07T06:05:02.517Z,31.50
2018-11-07T06:07:33.029Z,38.48
2018-11-07T06:10:04.105Z,29.10
2018-11-07T06:12:35.980Z,27.22
2018-11-07T06:15:07.317Z,22.55
2018-11-07T06:17:39.089Z,27.02
2018-11-07T06:20:12.261Z,27.95
2018-11-07T06:22:48.284Z,23.18
2018-11-07T06:25:23.388Z,21.65
2018-11-07T06:27:53.223Z,24.65
2018-11-07T06:30:28.848Z,28.30
2018-11-07T06:32:59.633Z,32.38
2018-11-07T06:35:29.325Z,36.80
2018-11-07T06:38:02.381Z,41.77
2018-11-07T06:40:35.948Z,27.25
2018-11-07T06:43:05.816Z,24.70
2018-11-07T06:45:36.745Z,24.43
2018-11-07T06:48:06.316Z,22.22
2018-11-07T06:50:36.841Z,24.92
2018-11-07T06:53:06.336Z,22.13
2018-11-07T06:55:39.368Z,33.23
2018-11-07T06:58:09.195Z,30.92
2018-11-07T07:00:39.173Z,31.75
2018-11-07T07:03:12.617Z,39.88
2018-11-07T07:05:46.826Z,38.83
2018-11-07T07:08:20.349Z,29.02
2018-11-07T07:10:50.239Z,25.52
2018-11-07T07:13:22.061Z,29.75
2018-11-07T07:15:51.933Z,36.13
2018-11-07T07:18:21.922Z,35.00
2018-11-07T07:20:51.861Z,28.95
2018-11-07T07:23:31.553Z,38.80
2018-11-07T07:26:06.761Z,28.15
2018-11-07T07:28:37.761Z,29.95
2018-11-07T07:31:07.461Z,28.95
2018-11-07T07:33:37.205Z,41.28
2018-11-07T07:36:06.721Z,32.65
2018-11-07T07:38:36.521Z,42.88
2018-11-07T07:41:06.493Z,31.05
2018-11-07T07:43:36.421Z,38.15
2018-11-07T07:46:06.115Z,36.73
2018-11-07T07:48:35.929Z,35.90
2018-11-07T07:51:06.117Z,25.67
2018-11-07T07:53:39.553Z,28.38
2018-11-07T07:56:15.083Z,30.73
2018-11-07T07:58:45.589Z,27.65
2018-11-07T08:01:16.294Z,34.07
2018-11-07T08:03:46.133Z,24.90
2018-11-07T08:06:19.057Z,34.67
2018-11-07T08:08:48.881Z,24.03
2018-11-07T08:11:18.597Z,37.17
2018-11-07T08:13:49.439Z,29.23
2018-11-07T08:16:25.052Z,34.93
2018-11-07T08:18:58.022Z,49.73
2018-11-07T08:21:28.733Z,69.17
2018-11-07T08:23:58.405Z,68.20
2018-11-07T08:26:28.050Z,56.63
2018-11-07T08:28:57.601Z,56.10
2018-11-07T08:31:27.069Z,42.40
2018-11-07T08:33:57.846Z,52.20
2018-11-07T08:36:33.286Z,64.20
2018-11-07T08:39:03.871Z,35.57
2018-11-07T08:41:38.922Z,38.60
2018-11-07T08:44:09.463Z,40.17
2018-11-07T08:46:41.830Z,39.13
2018-11-07T08:49:11.306Z,49.93
2018-11-07T08:51:41.781Z,47.43
2018-11-07T08:54:12.478Z,45.87
2018-11-07T08:56:44.359Z,44.50
2018-11-07T08:59:15.176Z,50.20
2018-11-07T09:01:46.025Z,52.23
2018-11-07T09:04:17.870Z,50.57
2018-11-07T09:06:53.945Z,58.73
2018-11-07T09:09:24.557Z,49.97
2018-11-07T09:11:55.458Z,52.97
2018-11-07T09:14:25.086Z,46.87
2018-11-07T09:17:01.406Z,63.23
2018-11-07T09:19:31.306Z,70.77
2018-11-07T09:22:01.182Z,56.77
2018-11-07T09:24:32.088Z,83.07
2018-11-07T09:27:02.922Z,60.37
2018-11-07T09:29:32.722Z,76.53
2018-11-07T09:32:07.569Z,85.40
2018-11-07T09:34:37.122Z,61.90
2018-11-07T09:37:06.806Z,55.00
2018-11-07T09:39:36.685Z,51.93
2018-11-07T09:42:06.549Z,47.63
2018-11-07T09:44:36.197Z,50.97
2018-11-07T09:47:06.343Z,52.87
2018-11-07T09:49:39.810Z,66.23
2018-11-07T09:52:09.470Z,55.83
2018-11-07T09:54:40.174Z,59.00
2018-11-07T09:57:11.678Z,50.90
2018-11-07T09:59:48.314Z,61.73
2018-11-07T10:02:18.070Z,70.37
2018-11-07T10:04:48.667Z,79.70
2018-11-07T10:07:18.350Z,58.07
2018-11-07T10:09:48.230Z,50.20
2018-11-07T10:12:18.128Z,44.37
2018-11-07T10:14:48.954Z,46.27
2018-11-07T10:17:18.538Z,43.57
2018-11-07T10:19:48.306Z,33.37
2018-11-07T10:22:19.094Z,27.80
2018-11-07T10:24:49.866Z,30.17
2018-11-07T10:27:19.941Z,27.73
2018-11-07T10:29:50.502Z,23.47
2018-11-07T10:32:23.583Z,27.57
2018-11-07T10:34:54.414Z,30.27
2018-11-07T10:37:32.259Z,24.23
2018-11-07T10:40:04.230Z,30.97
2018-11-07T10:42:34.930Z,34.53
2018-11-07T10:45:04.510Z,23.90
2018-11-07T10:47:39.485Z,23.70
2018-11-07T10:50:10.300Z,25.70
2018-11-07T10:52:45.113Z,26.77
2018-11-07T10:55:15.254Z,27.37
2018-11-07T10:57:51.933Z,23.27
2018-11-07T11:00:28.066Z,37.83
2018-11-07T11:03:09.085Z,25.77
2018-11-07T11:05:48.394Z,24.50
2018-11-07T11:08:22.790Z,23.97
2018-11-07T11:11:02.500Z,27.00
2018-11-07T11:13:35.618Z,24.17
2018-11-07T11:16:06.393Z,23.30
2018-11-07T11:18:36.334Z,25.27
2018-11-07T11:21:06.021Z,20.40
2018-11-07T11:23:36.926Z,29.00
2018-11-07T11:26:06.486Z,28.07
2018-11-07T11:28:40.622Z,31.40
2018-11-07T11:31:10.137Z,34.00
2018-11-07T11:33:39.893Z,26.60
2018-11-07T11:36:09.444Z,28.53
2018-11-07T11:38:40.189Z,31.70
2018-11-07T11:41:12.991Z,38.03
2018-11-07T11:43:42.359Z,30.20
2018-11-07T11:46:16.188Z,33.57
2018-11-07T11:48:48.030Z,31.10
2018-11-07T11:51:17.929Z,31.83
2018-11-07T11:53:47.650Z,29.30
2018-11-07T11:56:22.786Z,28.23
2018-11-07T11:58:53.370Z,29.50
2018-11-07T12:01:23.901Z,23.67
2018-11-07T12:03:53.449Z,22.93
2018-11-07T12:06:25.023Z,20.37
2018-11-07T12:08:55.714Z,20.97
2018-11-07T12:11:25.285Z,25.60
2018-11-07T12:13:56.810Z,37.90
2018-11-07T12:16:26.550Z,24.27
2018-11-07T12:19:00.946Z,21.17
2018-11-07T12:21:30.743Z,23.27
2018-11-07T12:24:00.330Z,22.00
2018-11-07T12:26:30.069Z,22.37
2018-11-07T12:28:59.962Z,21.53
2018-11-07T12:31:29.762Z,27.37
2018-11-07T12:33:59.402Z,27.00
2018-11-07T12:36:36.513Z,19.10
2018-11-07T12:39:07.598Z,24.90
2018-11-07T12:41:37.338Z,22.83
2018-11-07T12:44:06.906Z,21.53
2018-11-07T12:46:37.627Z,23.97
2018-11-07T12:49:07.162Z,22.17
2018-11-07T12:51:36.622Z,18.87
2018-11-07T12:54:06.366Z,25.23
2018-11-07T12:56:38.175Z,19.87
2018-11-07T12:59:07.813Z,26.70
2018-11-07T13:01:37.630Z,24.87
2018-11-07T13:04:07.294Z,25.73
2018-11-07T13:06:38.170Z,24.20
2018-11-07T13:09:09.538Z,31.13
2018-11-07T13:11:45.546Z,21.77
2018-11-07T13:14:15.462Z,24.10
2018-11-07T13:16:46.186Z,38.40
2018-11-07T13:19:17.842Z,26.03
2018-11-07T13:21:47.482Z,28.80
2018-11-07T13:24:20.850Z,27.63
2018-11-07T13:26:50.526Z,29.50
2018-11-07T13:29:20.338Z,31.87
2018-11-07T13:31:51.178Z,27.50
2018-11-07T13:34:22.030Z,24.37
2018-11-07T13:36:51.939Z,24.70
2018-11-07T13:39:21.817Z,21.63
2018-11-07T13:41:51.334Z,25.07
2018-11-07T13:44:22.066Z,21.10
2018-11-07T13:46:52.894Z,25.43
2018-11-07T13:49:23.724Z,23.07
2018-11-07T13:51:55.490Z,25.83
2018-11-07T13:54:26.258Z,26.73
2018-11-07T13:56:57.869Z,25.53
2018-11-07T13:59:27.634Z,27.00
2018-11-07T14:01:58.390Z,30.30
2018-11-07T14:04:33.745Z,30.43
2018-11-07T14:07:04.414Z,25.37
2018-11-07T14:09:34.292Z,23.40
2018-11-07T14:12:04.266Z,30.80
2018-11-07T14:14:34.186Z,29.70
2018-11-07T14:17:04.058Z,26.27
2018-11-07T14:19:37.458Z,30.63
2018-11-07T14:22:08.330Z,28.67
2018-11-07T14:24:39.274Z,31.40
2018-11-07T14:27:08.914Z,30.20
2018-11-07T14:29:39.727Z,38.37
2018-11-07T14:32:09.367Z,27.87
2018-11-07T14:34:38.886Z,34.00
2018-11-07T14:37:08.367Z,35.37
2018-11-07T14:39:38.043Z,31.07
2018-11-07T14:42:07.690Z,31.30
2018-11-07T14:44:37.185Z,37.97
2018-11-07T14:47:07.053Z,31.97
2018-11-07T14:49:38.747Z,37.70
2018-11-07T14:52:08.378Z,36.17
2018-11-07T14:54:39.075Z,37.30
2018-11-07T14:57:08.635Z,34.30
2018-11-07T14:59:38.418Z,33.27
2018-11-07T15:02:08.202Z,31.77
2018-11-07T15:04:38.754Z,36.90
2018-11-07T15:07:08.486Z,33.20
2018-11-07T15:09:42.711Z,38.33
2018-11-07T15:12:16.179Z,36.17
2018-11-07T15:14:57.939Z,30.00
2018-11-07T15:17:28.806Z,34.67
2018-11-07T15:19:58.616Z,34.63
2018-11-07T15:22:28.242Z,44.20
2018-11-07T15:24:58.061Z,37.50
2018-11-07T15:27:28.668Z,40.67
2018-11-07T15:29:58.119Z,39.63
2018-11-07T15:32:27.891Z,33.67
2018-11-07T15:34:57.731Z,39.97
2018-11-07T15:37:27.323Z,38.17
2018-11-07T15:39:57.010Z,38.03
2018-11-07T15:42:26.815Z,38.40
2018-11-07T15:44:56.627Z,41.77
2018-11-07T15:47:26.723Z,40.37
2018-11-07T15:50:02.055Z,36.33
2018-11-07T15:52:31.653Z,46.50
2018-11-07T15:55:01.427Z,39.70
2018-11-07T15:57:31.014Z,38.60
2018-11-07T16:00:00.840Z,41.37
2018-11-07T16:02:30.522Z,41.40
2018-11-07T16:05:00.119Z,41.20
2018-11-07T16:07:30.658Z,39.63
2018-11-07T16:10:00.195Z,48.47
2018-11-07T16:12:30.395Z,46.03
2018-11-07T16:15:00.127Z,46.30
2018-11-07T16:17:30.951Z,46.33
2018-11-07T16:20:10.260Z,42.20
2018-11-07T16:22:40.504Z,45.87
2018-11-07T16:25:09.933Z,53.10
2018-11-07T16:27:40.654Z,50.50
2018-11-07T16:30:15.051Z,48.87
2018-11-07T16:32:44.878Z,49.23
2018-11-07T16:35:14.906Z,56.53
2018-11-07T16:37:48.442Z,51.70
2018-11-07T16:40:19.106Z,46.00
2018-11-07T16:42:48.942Z,57.50
2018-11-07T16:45:18.830Z,47.70
2018-11-07T16:47:48.688Z,55.60
2018-11-07T16:50:18.566Z,45.60
2018-11-07T16:52:48.127Z,58.40
2018-11-07T16:55:17.594Z,60.97
2018-11-07T16:57:49.160Z,64.10
2018-11-07T17:00:20.679Z,61.30
2018-11-07T17:02:50.958Z,76.53
2018-11-07T17:05:21.420Z,75.83
2018-11-07T17:07:51.162Z,71.87
2018-11-07T17:10:20.958Z,54.80
2018-11-07T17:12:50.771Z,57.20
2018-11-07T17:15:20.586Z,52.30
2018-11-07T17:17:50.378Z,55.47
2018-11-07T17:20:21.167Z,50.33
2018-11-07T17:22:51.046Z,45.90
2018-11-07T17:25:20.695Z,63.30
2018-11-07T17:27:50.485Z,51.30
2018-11-07T17:30:20.042Z,51.93
2018-11-07T17:32:56.706Z,58.70
2018-11-07T17:35:26.486Z,48.80
2018-11-07T17:37:56.391Z,45.53
2018-11-07T17:40:26.094Z,49.90
2018-11-07T17:42:55.807Z,48.90
2018-11-07T17:45:25.686Z,54.90
2018-11-07T17:47:59.732Z,51.70
2018-11-07T17:50:30.221Z,47.60
2018-11-07T17:53:03.506Z,55.73
2018-11-07T17:55:35.207Z,55.13
2018-11-07T17:58:06.150Z,50.67
2018-11-07T18:00:36.086Z,50.03
2018-11-07T18:03:05.734Z,48.03
2018-11-07T18:05:36.518Z,119.93
2018-11-07T18:08:06.414Z,118.13
2018-11-07T18:10:37.410Z,79.43
2018-11-07T18:13:08.082Z,101.57
2018-11-07T18:15:39.105Z,158.87
2018-11-07T18:18:09.978Z,146.20
2018-11-07T18:20:39.802Z,189.33
2018-11-07T18:23:09.631Z,190.60
2018-11-07T18:25:39.510Z,147.03
2018-11-07T18:28:09.081Z,162.37
2018-11-07T18:30:39.954Z,119.57
2018-11-07T18:33:10.556Z,99.40
2018-11-07T18:35:46.886Z,172.80
2018-11-07T18:38:17.109Z,77.33
2018-11-07T18:40:47.026Z,142.47
2018-11-07T18:43:18.045Z,78.63
2018-11-07T18:45:47.842Z,160.33
2018-11-07T18:48:18.131Z,70.60
2018-11-07T18:50:48.023Z,120.47
2018-11-07T18:53:17.870Z,135.80
2018-11-07T18:55:51.770Z,104.63
2018-11-07T18:58:21.759Z,53.37
2018-11-07T19:00:51.634Z,44.60
2018-11-07T19:03:21.514Z,91.00
2018-11-07T19:05:51.529Z,67.60
2018-11-07T19:08:22.582Z,65.90
2018-11-07T19:10:53.490Z,85.70
2018-11-07T19:13:23.126Z,96.63
2018-11-07T19:15:52.910Z,70.63
2018-11-07T19:18:22.758Z,101.75
2018-11-07T19:20:52.680Z,120.43
2018-11-07T19:23:22.583Z,317.23
2018-11-07T19:25:54.493Z,150.50
2018-11-07T19:28:29.169Z,268.57
2018-11-07T19:30:58.978Z,134.80
2018-11-07T19:33:30.850Z,111.20
2018-11-07T19:36:04.562Z,196.20
2018-11-07T19:38:35.470Z,110.60
2018-11-07T19:41:06.386Z,65.50
2018-11-07T19:43:40.210Z,71.30
2018-11-07T19:46:10.618Z,75.63
2018-11-07T19:48:40.442Z,63.45
2018-11-07T19:51:10.098Z,73.33
2018-11-07T19:53:40.731Z,62.00
2018-11-07T19:56:10.286Z,66.05
2018-11-07T19:58:49.952Z,55.75
2018-11-07T20:01:21.827Z,57.08
2018-11-07T20:03:52.774Z,61.87
2018-11-07T20:06:22.686Z,60.25
2018-11-07T20:08:55.942Z,54.83
2018-11-07T20:11:25.698Z,53.75
2018-11-07T20:13:56.566Z,57.90
2018-11-07T20:16:26.516Z,60.98
2018-11-07T20:18:56.793Z,61.50
2018-11-07T20:21:38.666Z,60.33
2018-11-07T20:24:08.566Z,66.53
2018-11-07T20:26:40.442Z,53.13
2018-11-07T20:29:11.238Z,93.80
2018-11-07T20:31:43.094Z,53.20
2018-11-07T20:34:16.485Z,214.48
2018-11-07T20:36:46.422Z,60.12
2018-11-07T20:39:20.551Z,43.80
2018-11-07T20:41:50.436Z,44.13
2018-11-07T20:44:20.157Z,50.38
2018-11-07T20:46:53.889Z,96.12
2018-11-07T20:49:23.778Z,46.98
2018-11-07T20:51:53.578Z,70.90
2018-11-07T20:54:25.460Z,38.33
2018-11-07T20:56:59.970Z,35.40
2018-11-07T20:59:31.810Z,37.25
2018-11-07T21:02:01.835Z,40.60
2018-11-07T21:04:31.567Z,34.92
2018-11-07T21:07:01.355Z,41.48
2018-11-07T21:09:32.254Z,36.05
2018-11-07T21:12:02.096Z,59.73
2018-11-07T21:14:32.002Z,64.12
2018-11-07T21:17:01.927Z,25.40
2018-11-07T21:19:31.866Z,33.95
2018-11-07T21:22:01.765Z,30.17
2018-11-07T21:24:37.034Z,39.10
2018-11-07T21:27:06.982Z,32.70
2018-11-07T21:29:36.838Z,31.80
2018-11-07T21:32:10.698Z,26.30
2018-11-07T21:34:43.685Z,60.15
2018-11-07T21:37:19.210Z,22.00
2018-11-07T21:39:50.046Z,23.90
2018-11-07T21:42:21.038Z,25.43
2018-11-07T21:44:50.920Z,30.12
2018-11-07T21:47:25.890Z,30.45
2018-11-07T21:49:55.786Z,32.70
2018-11-07T21:52:25.475Z,28.73
2018-11-07T21:54:56.262Z,27.58
2018-11-07T21:57:26.998Z,35.40
2018-11-07T22:00:02.909Z,27.73
2018-11-07T22:02:37.904Z,25.12
2018-11-07T22:05:09.231Z,44.20
2018-11-07T22:07:41.310Z,24.90
2018-11-07T22:10:12.027Z,26.90
2018-11-07T22:12:45.946Z,20.75
2018-11-07T22:15:15.834Z,30.40
2018-11-07T22:17:45.539Z,36.03
2018-11-07T22:20:17.848Z,34.45
2018-11-07T22:22:47.510Z,32.55
2018-11-07T22:25:20.142Z,32.40
2018-11-07T22:27:49.879Z,26.02
2018-11-07T22:30:19.880Z,27.45
2018-11-07T22:32:55.102Z,32.88
2018-11-07T22:35:30.079Z,33.67
2018-11-07T22:38:04.918Z,31.95
2018-11-07T22:40:34.839Z,33.15
2018-11-07T22:43:06.687Z,29.87
2018-11-07T22:45:37.474Z,28.77
2018-11-07T22:48:10.507Z,30.55
2018-11-07T22:50:53.326Z,29.92
2018-11-07T22:53:28.563Z,29.07
2018-11-07T22:55:58.439Z,43.15
2018-11-07T22:58:28.276Z,32.73
2018-11-07T23:00:57.914Z,35.03
2018-11-07T23:03:27.754Z,23.35
2018-11-07T23:06:02.500Z,21.48
2018-11-07T23:08:32.145Z,18.82
2018-11-07T23:11:01.881Z,17.95
2018-11-07T23:13:31.723Z,20.80
2018-11-07T23:16:02.475Z,19.67
2018-11-07T23:18:32.064Z,16.85
2018-11-07T23:21:02.596Z,14.83
2018-11-07T23:23:34.408Z,15.45
2018-11-07T23:26:08.739Z,12.63
2018-11-07T23:28:38.547Z,14.45
2018-11-07T23:31:08.245Z,15.78
2018-11-07T23:33:39.187Z,19.67
2018-11-07T23:36:09.131Z,24.02
2018-11-07T23:38:38.963Z,23.92
2018-11-07T23:41:08.770Z,19.35
2018-11-07T23:43:39.627Z,22.22
2018-11-07T23:46:11.426Z,20.75
2018-11-07T23:48:41.312Z,98.50
2018-11-07T23:51:11.023Z,41.68
2018-11-07T23:53:44.382Z,20.43
2018-11-07T23:56:14.215Z,28.00
2018-11-07T23:58:45.862Z,53.30
